Time;durP1;ratioP1;P1;durP2;ratioP2;P2;SDS_P1;SDS_P2;PMS_P1;PMS_P2;Temp;Humidity;BMP_temperature;BMP_pressure;BME280_temperature;BME280_humidity;BME280_pressure;Samples;Min_cycle;Max_cycle;Signal;HPM_P1;HPM_P2
2023/10/29 00:00:12;;;;;;;0.70;0.70;;;;;;;9.14;100.00;99484.70;88527;277;136983;-72
2023/10/29 00:02:13;;;;;;;2.30;1.10;;;;;;;9.10;100.00;99485.90;88514;275;22922;-72
2023/10/29 00:04:16;;;;;;;2.40;1.00;;;;;;;9.07;100.00;99490.77;88361;274;137064;-74
2023/10/29 00:06:18;;;;;;;1.20;1.10;;;;;;;9.03;100.00;99494.46;88640;281;23888;-70
2023/10/29 00:08:20;;;;;;;0.60;0.60;;;;;;;9.00;100.00;99496.78;88360;282;137791;-71
2023/10/29 00:10:22;;;;;;;1.00;1.00;;;;;;;8.99;100.00;99494.58;88606;277;25118;-73
2023/10/29 00:12:23;;;;;;;1.10;1.00;;;;;;;8.98;100.00;99494.90;88431;281;137274;-74
2023/10/29 00:14:25;;;;;;;1.40;0.80;;;;;;;8.97;100.00;99495.42;88583;274;22709;-72
2023/10/29 00:16:27;;;;;;;1.50;1.20;;;;;;;8.95;100.00;99498.35;88585;274;138141;-71
2023/10/29 00:18:29;;;;;;;1.00;0.80;;;;;;;8.93;100.00;99494.85;88627;277;25115;-73
2023/10/29 00:20:31;;;;;;;1.80;1.10;;;;;;;8.91;100.00;99495.84;88552;273;136814;-72
2023/10/29 00:22:33;;;;;;;5.40;1.30;;;;;;;8.89;100.00;99496.61;88509;277;24128;-71
2023/10/29 00:24:35;;;;;;;1.60;1.10;;;;;;;8.88;100.00;99499.77;88514;273;136647;-72
2023/10/29 00:26:36;;;;;;;2.00;1.60;;;;;;;8.88;100.00;99504.55;88801;278;25177;-71
2023/10/29 00:28:39;;;;;;;1.10;1.00;;;;;;;8.88;100.00;99507.58;88536;281;136886;-70
2023/10/29 00:30:41;;;;;;;2.30;1.40;;;;;;;8.87;100.00;99509.59;88590;281;22537;-63
2023/10/29 00:32:43;;;;;;;1.50;1.20;;;;;;;8.87;100.00;99510.11;88459;276;137448;-75
2023/10/29 00:34:48;;;;;;;2.20;1.50;;;;;;;8.88;100.00;99515.58;88620;280;25085;-71
2023/10/29 00:36:50;;;;;;;;;;;;;;;8.89;100.00;99522.69;88535;273;138111;-70
2023/10/29 00:38:51;;;;;;;1.40;1.20;;;;;;;8.90;100.00;99526.02;88579;281;22541;-72
2023/10/29 00:40:53;;;;;;;2.10;1.90;;;;;;;8.93;100.00;99525.88;88454;277;136873;-73
2023/10/29 00:42:55;;;;;;;1.30;1.20;;;;;;;8.97;100.00;99528.70;88534;281;22679;-70
2023/10/29 00:44:57;;;;;;;2.40;1.90;;;;;;;9.01;100.00;99529.86;88414;274;138357;-75
2023/10/29 00:46:59;;;;;;;2.20;1.90;;;;;;;9.04;100.00;99528.49;88622;280;25105;-75
2023/10/29 00:49:02;;;;;;;2.50;2.00;;;;;;;9.07;100.00;99525.84;88451;273;136998;-75
2023/10/29 00:51:04;;;;;;;2.40;1.90;;;;;;;9.09;100.00;99530.59;88626;277;23669;-73
2023/10/29 00:53:06;;;;;;;3.30;2.30;;;;;;;9.11;100.00;99535.04;88449;281;137942;-67
2023/10/29 00:55:09;;;;;;;1.80;1.60;;;;;;;9.15;100.00;99535.42;88797;281;22577;-71
2023/10/29 00:57:11;;;;;;;2.50;2.00;;;;;;;9.18;100.00;99528.47;88683;281;136824;-70
2023/10/29 00:59:15;;;;;;;2.70;2.20;;;;;;;9.21;100.00;99532.36;88683;281;22618;-73
2023/10/29 01:01:17;;;;;;;1.60;1.50;;;;;;;9.23;100.00;99535.44;88549;280;136840;-70
2023/10/29 01:03:19;;;;;;;1.70;1.60;;;;;;;9.27;100.00;99538.12;88619;280;25102;-72
2023/10/29 01:05:23;;;;;;;3.30;2.20;;;;;;;9.30;100.00;99539.23;88556;281;136885;-63
2023/10/29 01:07:25;;;;;;;1.70;1.60;;;;;;;9.32;100.00;99539.04;88651;278;22642;-73
2023/10/29 01:09:27;;;;;;;1.30;1.20;;;;;;;9.34;100.00;99543.42;88591;273;136911;-72
2023/10/29 01:11:29;;;;;;;1.90;1.80;;;;;;;9.33;100.00;99541.20;88904;280;25176;-74
2023/10/29 01:13:32;;;;;;;1.50;1.10;;;;;;;9.34;100.00;99544.46;88429;280;137973;-72
2023/10/29 01:15:35;;;;;;;0.90;0.90;;;;;;;9.34;100.00;99543.25;88630;281;22776;-71
2023/10/29 01:17:36;;;;;;;0.80;0.80;;;;;;;9.33;100.00;99542.80;88494;273;136575;-72
2023/10/29 01:19:38;;;;;;;0.70;0.70;;;;;;;9.30;100.00;99546.88;88573;274;22537;-70
2023/10/29 01:21:43;;;;;;;1.10;1.10;;;;;;;9.28;100.00;99553.05;88424;282;136710;-70
2023/10/29 01:23:45;;;;;;;0.80;0.80;;;;;;;9.27;100.00;99554.61;88486;275;23746;-72
2023/10/29 01:25:47;;;;;;;1.20;1.10;;;;;;;9.25;100.00;99560.40;88506;277;136895;-73
2023/10/29 01:27:49;;;;;;;2.20;1.90;;;;;;;9.22;100.00;99564.90;88483;274;24173;-69
2023/10/29 01:29:51;;;;;;;1.60;1.40;;;;;;;9.19;100.00;99565.86;88396;273;137593;-71
2023/10/29 01:31:52;;;;;;;1.10;1.00;;;;;;;9.18;100.00;99570.36;88546;273;25807;-71
2023/10/29 01:33:54;;;;;;;0.80;0.60;;;;;;;9.17;100.00;99572.77;88376;280;137738;-71
2023/10/29 01:35:56;;;;;;;1.00;0.90;;;;;;;9.16;100.00;99579.06;88545;277;25223;-74
2023/10/29 01:37:58;;;;;;;1.50;1.30;;;;;;;9.13;100.00;99582.97;88435;274;136687;-70
2023/10/29 01:40:00;;;;;;;2.30;1.10;;;;;;;9.08;100.00;99592.96;88558;275;22520;-72
2023/10/29 01:42:02;;;;;;;1.40;1.00;;;;;;;9.05;100.00;99590.99;88599;280;136457;-72
2023/10/29 01:44:04;;;;;;;2.40;0.90;;;;;;;9.03;100.00;99586.48;88535;273;137263;-71
2023/10/29 01:46:06;;;;;;;1.00;0.90;;;;;;;9.03;100.00;99589.63;88524;280;24638;-70
2023/10/29 01:48:08;;;;;;;2.70;1.10;;;;;;;9.03;100.00;99590.86;88393;274;136953;-70
2023/10/29 01:50:10;;;;;;;0.70;0.70;;;;;;;9.03;100.00;99590.62;88609;273;24207;-71
2023/10/29 01:52:12;;;;;;;0.90;0.90;;;;;;;9.03;100.00;99593.80;88533;274;137003;-72
2023/10/29 01:54:14;;;;;;;0.80;0.80;;;;;;;9.01;100.00;99591.45;88500;281;22612;-73
2023/10/29 01:56:16;;;;;;;1.20;1.00;;;;;;;8.99;100.00;99595.08;88322;283;137706;-73
2023/10/29 01:58:17;;;;;;;0.80;0.80;;;;;;;8.97;100.00;99596.06;88508;280;25121;-72
2023/10/29 02:00:19;;;;;;;1.40;1.30;;;;;;;8.95;100.00;99601.16;88474;273;136982;-71
2023/10/29 02:02:21;;;;;;;1.20;1.10;;;;;;;8.94;100.00;99601.76;88546;277;22822;-69
2023/10/29 02:04:26;;;;;;;1.00;0.90;;;;;;;8.93;100.00;99607.54;88434;278;136988;-73
2023/10/29 02:06:29;;;;;;;2.30;1.80;;;;;;;8.94;100.00;99612.05;88508;280;25184;-76
2023/10/29 02:08:32;;;;;;;4.20;1.80;;;;;;;8.94;100.00;99615.35;88488;282;137580;-73
2023/10/29 02:10:34;;;;;;;1.30;0.90;;;;;;;8.95;100.00;99620.10;88644;281;23248;-72
2023/10/29 02:12:35;;;;;;;1.90;1.70;;;;;;;8.95;100.00;99623.73;88465;278;136867;-66
2023/10/29 02:14:39;;;;;;;4.10;0.90;;;;;;;8.95;100.00;99626.43;88495;280;26184;-72
2023/10/29 02:16:43;;;;;;;0.90;0.90;;;;;;;8.93;100.00;99627.20;88427;278;137154;-75
2023/10/29 02:18:45;;;;;;;0.80;0.70;;;;;;;8.92;100.00;99635.45;88609;281;25213;-73
2023/10/29 02:20:46;;;;;;;0.70;0.70;;;;;;;8.89;100.00;99641.36;88462;282;136974;-75
2023/10/29 02:22:48;;;;;;;0.90;0.90;;;;;;;8.86;100.00;99644.00;88623;280;25083;-72
2023/10/29 02:24:50;;;;;;;1.50;1.10;;;;;;;8.85;100.00;99647.91;88523;273;138189;-71
2023/10/29 02:26:52;;;;;;;1.80;1.20;;;;;;;8.85;100.00;99641.41;88446;283;24449;-72
2023/10/29 02:28:54;;;;;;;0.60;0.60;;;;;;;8.87;100.00;99646.74;88428;282;136942;-74
2023/10/29 02:30:58;;;;;;;0.80;0.80;;;;;;;8.88;100.00;99648.55;88477;279;23839;-70
2023/10/29 02:33:00;;;;;;;1.70;1.10;;;;;;;8.89;100.00;99650.80;88336;274;138122;-70
2023/10/29 02:35:02;;;;;;;1.10;0.90;;;;;;;8.89;100.00;99654.81;88547;281;22557;-72
2023/10/29 02:37:04;;;;;;;0.90;0.90;;;;;;;8.91;100.00;99654.45;88458;277;136922;-75
2023/10/29 02:39:06;;;;;;;1.10;0.70;;;;;;;8.92;100.00;99656.27;88514;278;24051;-72
2023/10/29 02:41:08;;;;;;;1.20;0.70;;;;;;;8.87;100.00;99648.02;88492;281;137344;-72
2023/10/29 02:43:10;;;;;;;1.30;0.90;;;;;;;8.92;100.00;99664.16;88535;274;22538;-72
2023/10/29 02:45:12;;;;;;;0.90;0.70;;;;;;;8.92;100.00;99664.33;88356;281;136410;-69
2023/10/29 02:47:14;;;;;;;3.90;1.20;;;;;;;8.91;100.00;99665.77;88509;279;22546;-72
2023/10/29 02:49:16;;;;;;;1.70;0.80;;;;;;;8.88;100.00;99669.52;88413;280;137235;-72
2023/10/29 02:51:19;;;;;;;9.80;1.00;;;;;;;8.87;100.00;99675.44;88535;281;24055;-70
2023/10/29 02:53:21;;;;;;;0.90;0.90;;;;;;;8.87;100.00;99682.56;88464;282;137134;-71
2023/10/29 02:55:22;;;;;;;1.40;0.80;;;;;;;8.87;100.00;99685.69;88546;281;24048;-70
2023/10/29 02:57:29;;;;;;;1.80;1.40;;;;;;;8.89;100.00;99690.63;88516;273;136794;-80
2023/10/29 02:59:30;;;;;;;0.70;0.60;;;;;;;8.90;100.00;99693.34;88616;280;23689;-77
2023/10/29 03:01:32;;;;;;;1.00;0.80;;;;;;;8.90;100.00;99690.71;88403;276;137670;-80
2023/10/29 03:03:36;;;;;;;0.70;0.70;;;;;;;8.89;100.00;99694.48;88545;277;22609;-73
2023/10/29 03:05:39;;;;;;;1.50;1.40;;;;;;;8.89;100.00;99697.14;88500;274;136660;-76
2023/10/29 03:07:59;;;;;;;1.60;1.50;;;;;;;8.89;100.00;99704.58;88600;281;25156;-77
2023/10/29 03:10:01;;;;;;;1.20;1.10;;;;;;;8.89;100.00;99713.60;88411;280;137150;-72
2023/10/29 03:12:02;;;;;;;1.60;1.40;;;;;;;8.86;100.00;99729.04;88495;274;137248;-71
2023/10/29 03:14:04;;;;;;;2.50;1.50;;;;;;;8.85;100.00;99733.89;88661;280;25299;-67
2023/10/29 03:16:06;;;;;;;3.50;1.50;;;;;;;8.78;100.00;99720.67;88519;273;138214;-71
2023/10/29 03:18:08;;;;;;;1.50;1.40;;;;;;;8.83;100.00;99731.30;88565;273;22536;-77
2023/10/29 03:20:11;;;;;;;1.80;1.30;;;;;;;8.79;100.00;99731.59;88414;281;136989;-73
2023/10/29 03:22:13;;;;;;;2.30;2.10;;;;;;;8.77;100.00;99731.70;88517;281;22616;-73
2023/10/29 03:24:17;;;;;;;2.70;1.70;;;;;;;8.78;100.00;99727.58;88504;280;139239;-73
2023/10/29 03:26:19;;;;;;;1.60;1.50;;;;;;;8.79;100.00;99728.05;88550;277;25087;-81
2023/10/29 03:28:21;;;;;;;1.50;1.30;;;;;;;8.78;100.00;99726.69;88413;280;136815;-68
2023/10/29 03:30:22;;;;;;;1.10;1.10;;;;;;;8.70;100.00;99722.58;88373;280;24065;-75
2023/10/29 03:32:24;;;;;;;1.10;1.00;;;;;;;8.80;100.00;99739.27;88448;277;136788;-73
2023/10/29 03:34:26;;;;;;;1.40;1.20;;;;;;;8.81;100.00;99740.16;88516;277;25210;-71
2023/10/29 03:36:28;;;;;;;1.60;1.50;;;;;;;8.83;100.00;99746.27;88515;281;137839;-72
2023/10/29 03:38:30;;;;;;;2.50;1.60;;;;;;;8.83;100.00;99747.33;88364;282;22549;-72
2023/10/29 03:40:32;;;;;;;1.90;1.70;;;;;;;8.82;100.00;99748.71;88362;277;138308;-73
2023/10/29 03:42:34;;;;;;;2.10;1.80;;;;;;;8.82;100.00;99748.10;88003;274;731113;-75
2023/10/29 03:44:35;;;;;;;2.00;1.70;;;;;;;8.82;100.00;99746.27;88460;281;136869;-78
2023/10/29 03:46:37;;;;;;;1.60;1.50;;;;;;;8.82;100.00;99749.12;88587;273;22845;-70
2023/10/29 03:48:44;;;;;;;2.30;2.00;;;;;;;8.84;100.00;99748.89;88426;281;136884;-75
2023/10/29 03:50:46;;;;;;;2.30;1.70;;;;;;;8.87;100.00;99745.77;88582;281;24059;-76
2023/10/29 03:52:48;;;;;;;4.00;2.00;;;;;;;8.89;100.00;99744.81;88338;281;136673;-71
2023/10/29 03:54:50;;;;;;;2.40;1.40;;;;;;;8.90;100.00;99746.16;88587;278;22947;-73
2023/10/29 03:56:52;;;;;;;1.70;1.60;;;;;;;8.91;100.00;99743.21;88591;277;137162;-67
2023/10/29 03:58:54;;;;;;;2.00;1.80;;;;;;;8.91;100.00;99738.40;88635;275;22539;-78
2023/10/29 04:00:56;;;;;;;2.60;1.70;;;;;;;8.88;100.00;99737.52;88427;277;137630;-73
2023/10/29 04:02:58;;;;;;;2.30;2.10;;;;;;;8.87;100.00;99734.81;88513;281;23008;-77
2023/10/29 04:05:00;;;;;;;1.80;1.50;;;;;;;8.87;100.00;99736.08;88447;281;137001;-71
2023/10/29 04:07:11;;;;;;;1.90;1.40;;;;;;;8.84;100.00;99733.89;88535;281;26870;-75
2023/10/29 04:09:14;;;;;;;2.10;1.60;;;;;;;8.85;100.00;99731.92;88508;274;136505;-72
2023/10/29 04:11:17;;;;;;;2.10;2.00;;;;;;;8.85;100.00;99730.77;88702;282;22543;-74
2023/10/29 04:13:19;;;;;;;1.40;1.30;;;;;;;8.85;100.00;99735.56;88500;280;136654;-77
2023/10/29 04:15:21;;;;;;;1.90;1.80;;;;;;;8.85;100.00;99730.78;88532;281;22795;-75
2023/10/29 04:17:23;;;;;;;2.90;1.20;;;;;;;8.83;100.00;99726.03;88444;281;136834;-70
2023/10/29 04:19:25;;;;;;;1.90;1.70;;;;;;;8.85;100.00;99727.63;88476;274;22536;-75
2023/10/29 04:21:27;;;;;;;1.60;1.50;;;;;;;8.85;100.00;99730.25;88436;274;137055;-76
2023/10/29 04:23:29;;;;;;;2.10;1.40;;;;;;;8.86;100.00;99730.22;88608;281;25083;-75
2023/10/29 04:25:33;;;;;;;1.60;1.50;;;;;;;8.85;100.00;99731.52;88490;277;136524;-75
2023/10/29 04:27:35;;;;;;;2.00;1.90;;;;;;;8.85;100.00;99728.90;89775;280;22709;-70
2023/10/29 04:29:36;;;;;;;1.90;1.60;;;;;;;8.85;100.00;99725.18;90074;278;137665;-75
2023/10/29 04:31:38;;;;;;;1.70;1.60;;;;;;;8.84;100.00;99724.70;90200;281;23046;-73
2023/10/29 04:33:40;;;;;;;2.30;1.60;;;;;;;8.86;100.00;99725.89;90284;281;152299;-67
2023/10/29 04:35:43;;;;;;;2.90;1.70;;;;;;;8.89;100.00;99722.31;89730;274;23499;-73
2023/10/29 04:37:45;;;;;;;1.90;1.70;;;;;;;8.92;100.00;99721.03;89298;281;137870;-74
2023/10/29 04:39:49;;;;;;;1.60;1.50;;;;;;;8.94;100.00;99726.85;90370;281;22655;-75
2023/10/29 04:41:51;;;;;;;2.70;1.80;;;;;;;8.93;100.00;99730.17;90304;281;137070;-66
2023/10/29 04:43:53;;;;;;;2.00;1.90;;;;;;;8.93;100.00;99732.66;90141;282;22641;-75
2023/10/29 04:45:57;;;;;;;1.70;1.60;;;;;;;8.94;100.00;99730.33;88752;281;136524;-72
2023/10/29 04:47:59;;;;;;;2.30;2.00;;;;;;;8.96;100.00;99729.41;88708;281;22532;-75
2023/10/29 04:50:01;;;;;;;1.50;1.40;;;;;;;8.98;100.00;99734.73;88534;274;136937;-76
2023/10/29 04:52:03;;;;;;;3.40;1.60;;;;;;;8.99;100.00;99738.35;88489;281;137184;-67
2023/10/29 04:54:06;;;;;;;1.50;1.40;;;;;;;8.99;100.00;99742.68;88699;281;24284;-76
2023/10/29 04:56:08;;;;;;;2.00;1.80;;;;;;;8.99;100.00;99742.96;88575;277;136994;-77
2023/10/29 04:58:10;;;;;;;6.10;1.60;;;;;;;8.96;100.00;99746.38;88608;281;24054;-75
2023/10/29 05:00:13;;;;;;;2.40;1.60;;;;;;;8.95;100.00;99750.16;88523;281;137305;-75
2023/10/29 05:02:18;;;;;;;2.60;1.70;;;;;;;8.91;100.00;99748.88;88438;273;23865;-78
2023/10/29 05:04:20;;;;;;;1.50;1.40;;;;;;;8.98;100.00;99756.91;88397;274;137594;-73
2023/10/29 05:06:22;;;;;;;1.30;1.20;;;;;;;9.05;100.00;99761.13;88528;281;22534;-76
2023/10/29 05:08:25;;;;;;;2.00;1.80;;;;;;;9.09;100.00;99767.67;88350;273;137025;-74
2023/10/29 05:10:28;;;;;;;2.40;2.00;;;;;;;9.12;100.00;99777.22;88544;273;23869;-75
2023/10/29 05:12:30;;;;;;;2.00;1.80;;;;;;;9.14;100.00;99781.00;88515;273;136627;-70
2023/10/29 05:14:32;;;;;;;3.20;2.10;;;;;;;9.17;100.00;99787.07;88579;274;22610;-79
2023/10/29 05:16:34;;;;;;;4.10;3.80;;;;;;;9.14;100.00;99794.14;88451;281;138244;-76
2023/10/29 05:18:35;;;;;;;4.40;4.00;;;;;;;9.11;100.00;99798.83;88711;280;22552;-67
2023/10/29 05:20:38;;;;;;;3.80;3.50;;;;;;;9.08;100.00;99799.71;88745;274;138161;-68
2023/10/29 05:22:40;;;;;;;3.20;2.90;;;;;;;9.06;100.00;99811.82;88567;273;25236;-76
2023/10/29 05:24:43;;;;;;;19.60;2.90;;;;;;;9.06;100.00;99816.39;88509;273;138538;-72
2023/10/29 05:26:45;;;;;;;2.40;2.20;;;;;;;9.06;100.00;99823.75;88673;281;25271;-79
2023/10/29 05:28:50;;;;;;;3.00;2.60;;;;;;;9.02;100.00;99827.33;88446;273;136890;-77
2023/10/29 05:30:52;;;;;;;2.40;2.20;;;;;;;9.00;100.00;99831.76;88612;273;24302;-74
2023/10/29 05:32:54;;;;;;;2.10;2.00;;;;;;;9.01;100.00;99835.03;88447;274;137607;-77
2023/10/29 05:34:56;;;;;;;2.50;2.30;;;;;;;9.02;100.00;99836.22;88456;273;22537;-76
2023/10/29 05:36:58;;;;;;;3.30;3.10;;;;;;;9.03;100.00;99848.06;88520;274;136917;-75
2023/10/29 05:39:01;;;;;;;2.30;2.20;;;;;;;9.02;100.00;99850.21;88431;274;25170;-67
2023/10/29 05:41:03;;;;;;;3.60;3.10;;;;;;;9.03;100.00;99854.23;88356;274;137035;-74
2023/10/29 05:43:05;;;;;;;3.00;2.80;;;;;;;9.04;100.00;99859.29;88386;274;24685;-78
2023/10/29 05:45:07;;;;;;;2.70;2.60;;;;;;;9.03;100.00;99862.34;88264;273;136911;-68
2023/10/29 05:47:09;;;;;;;6.90;6.20;;;;;;;9.03;100.00;99867.29;88739;273;22605;-65
2023/10/29 05:49:11;;;;;;;6.00;5.30;;;;;;;9.03;100.00;99866.76;88427;274;136987;-75
2023/10/29 05:51:17;;;;;;;4.50;4.20;;;;;;;8.96;100.00;99861.09;88437;273;25207;-73
2023/10/29 05:53:19;;;;;;;4.90;4.00;;;;;;;9.05;100.00;99874.39;88307;278;136282;-76
2023/10/29 05:55:23;;;;;;;4.20;3.90;;;;;;;9.05;100.00;99874.67;88429;274;24848;-75
2023/10/29 05:57:25;;;;;;;5.20;4.80;;;;;;;9.07;100.00;99880.13;88373;274;138205;-73
2023/10/29 05:59:31;;;;;;;6.10;5.60;;;;;;;9.09;100.00;99887.06;88615;277;22537;-76
2023/10/29 06:01:33;;;;;;;5.40;5.00;;;;;;;9.12;100.00;99889.63;88745;277;136698;-74
2023/10/29 06:03:35;;;;;;;5.40;4.10;;;;;;;9.15;100.00;99892.28;88613;280;23443;-76
2023/10/29 06:05:38;;;;;;;4.60;4.10;;;;;;;9.18;100.00;99900.20;88594;281;136169;-78
2023/10/29 06:07:43;;;;;;;3.50;3.30;;;;;;;9.21;100.00;99902.38;88557;274;23749;-77
2023/10/29 06:09:47;;;;;;;4.40;3.60;;;;;;;9.20;100.00;99906.69;88476;273;136757;-71
2023/10/29 06:11:49;;;;;;;3.30;3.10;;;;;;;9.21;100.00;99912.16;88569;273;23173;-78
2023/10/29 06:13:53;;;;;;;3.10;2.90;;;;;;;9.22;100.00;99915.49;88457;277;136707;-66
2023/10/29 06:15:55;;;;;;;2.90;2.70;;;;;;;9.24;100.00;99918.69;88605;273;22526;-77
2023/10/29 06:17:57;;;;;;;2.80;2.60;;;;;;;9.25;100.00;99923.98;88527;280;137395;-78
2023/10/29 06:19:59;;;;;;;2.30;2.20;;;;;;;9.26;100.00;99924.29;88495;273;22537;-77
2023/10/29 06:22:01;;;;;;;3.60;3.30;;;;;;;9.24;100.00;99929.09;88378;274;138073;-78
2023/10/29 06:24:03;;;;;;;4.00;3.70;;;;;;;9.24;100.00;99927.38;88423;280;22535;-74
2023/10/29 06:26:11;;;;;;;6.90;3.90;;;;;;;9.25;100.00;99926.09;88620;273;24721;-73
2023/10/29 06:28:13;;;;;;;2.90;2.70;;;;;;;9.29;100.00;99930.41;88396;273;139328;-76
2023/10/29 06:30:14;;;;;;;3.30;3.10;;;;;;;9.33;100.00;99931.02;88518;274;22537;-70
2023/10/29 06:32:16;;;;;;;2.90;2.70;;;;;;;9.36;100.00;99935.27;88327;273;136665;-73
2023/10/29 06:34:22;;;;;;;3.20;3.00;;;;;;;9.34;100.00;99935.85;88520;280;22602;-75
2023/10/29 06:36:23;;;;;;;5.10;3.40;;;;;;;9.31;100.00;99937.46;88400;280;138043;-78
2023/10/29 06:38:25;;;;;;;4.20;3.90;;;;;;;9.29;100.00;99938.96;88497;279;22526;-76
2023/10/29 06:40:27;;;;;;;3.60;3.30;;;;;;;9.31;100.00;99940.46;88394;280;136726;-77
2023/10/29 06:42:29;;;;;;;3.30;3.10;;;;;;;9.34;100.00;99935.91;88444;273;24057;-73
2023/10/29 06:44:31;;;;;;;8.20;4.30;;;;;;;9.36;100.00;99941.20;88456;275;136898;-75
2023/10/29 06:46:33;;;;;;;3.50;3.30;;;;;;;9.36;100.00;99938.46;88653;273;22553;-79
2023/10/29 06:48:41;;;;;;;3.50;3.20;;;;;;;9.34;100.00;99943.23;88380;274;137008;-75
2023/10/29 06:50:43;;;;;;;3.90;3.40;;;;;;;9.37;100.00;99947.21;88472;281;24876;-81
2023/10/29 06:52:45;;;;;;;5.80;3.80;;;;;;;9.39;100.00;99948.77;88436;279;138175;-74
2023/10/29 06:54:47;;;;;;;3.10;2.90;;;;;;;9.42;100.00;99953.25;88644;273;22561;-72
2023/10/29 06:56:51;;;;;;;3.00;2.70;;;;;;;9.47;100.00;99959.20;88618;277;136649;-74
2023/10/29 06:58:53;;;;;;;3.60;3.30;;;;;;;9.52;100.00;99964.48;88789;273;22540;-73
2023/10/29 07:00:54;;;;;;;3.30;3.10;;;;;;;9.54;100.00;99968.92;88422;277;138128;-77
2023/10/29 07:02:56;;;;;;;3.20;3.00;;;;;;;9.57;100.00;99972.54;88531;273;25209;-77
2023/10/29 07:04:59;;;;;;;3.20;3.00;;;;;;;9.59;100.00;99972.31;88289;280;137629;-74
2023/10/29 07:07:01;;;;;;;6.80;5.30;;;;;;;9.61;100.00;99976.27;88376;277;24014;-80
2023/10/29 07:09:03;;;;;;;3.80;3.50;;;;;;;9.63;100.00;99978.41;88541;273;138287;-81
2023/10/29 07:11:07;;;;;;;3.60;3.30;;;;;;;9.64;100.00;99976.86;88974;280;23755;-81
2023/10/29 07:13:09;;;;;;;3.00;2.80;;;;;;;9.66;100.00;99979.59;88737;277;136932;-77
2023/10/29 07:15:12;;;;;;;3.90;3.60;;;;;;;9.69;100.00;99981.36;88718;281;22645;-79
2023/10/29 07:17:14;;;;;;;4.30;3.90;;;;;;;9.74;100.00;99979.70;88698;277;137064;-79
2023/10/29 07:19:16;;;;;;;3.80;3.60;;;;;;;9.78;100.00;99983.79;88735;277;22824;-78
2023/10/29 07:21:19;;;;;;;4.50;4.20;;;;;;;9.82;100.00;99987.05;88591;277;136819;-79
2023/10/29 07:23:23;;;;;;;4.70;3.10;;;;;;;9.84;100.00;99991.84;88736;272;22534;-79
2023/10/29 07:25:25;;;;;;;5.60;4.30;;;;;;;9.85;100.00;99994.63;89324;281;136824;-73
2023/10/29 07:27:27;;;;;;;4.40;4.00;;;;;;;9.84;100.00;99997.55;89004;275;23410;-79
2023/10/29 07:29:28;;;;;;;3.70;3.40;;;;;;;9.81;100.00;99991.71;88696;273;136496;-79
2023/10/29 07:31:30;;;;;;;4.60;3.70;;;;;;;9.80;100.00;99998.59;88727;276;25116;-67
2023/10/29 07:33:32;;;;;;;3.70;3.40;;;;;;;9.78;100.00;100005.24;88624;279;136346;-80
2023/10/29 07:35:35;;;;;;;4.10;3.70;;;;;;;9.78;100.00;100009.27;88728;280;22608;-80
2023/10/29 07:37:37;;;;;;;3.80;3.40;;;;;;;9.73;100.00;99995.54;88493;274;136338;-82
2023/10/29 07:39:39;;;;;;;3.80;3.50;;;;;;;9.80;100.00;100001.25;88685;278;25757;-75
2023/10/29 07:41:41;;;;;;;4.20;3.80;;;;;;;9.82;100.00;100005.11;88401;277;140510;-71
2023/10/29 07:45:16;;;;;;;4.00;3.80;;;;;;;9.75;100.00;100012.92;86692;305;602045;-76
2023/10/29 07:47:19;;;;;;;4.20;3.10;;;;;;;9.75;100.00;100015.21;87721;287;25559;-77
2023/10/29 07:49:20;;;;;;;3.20;3.00;;;;;;;9.79;100.00;100018.06;87571;287;136291;-77
2023/10/29 07:51:22;;;;;;;3.50;3.20;;;;;;;9.80;100.00;100014.23;87842;287;22628;-73
2023/10/29 07:53:28;;;;;;;4.50;4.20;;;;;;;9.75;100.00;100009.15;87871;284;140479;-72
2023/10/29 07:55:31;;;;;;;4.90;4.40;;;;;;;9.72;100.00;100008.67;88284;287;25207;-76
2023/10/29 07:57:33;;;;;;;5.20;4.00;;;;;;;9.72;100.00;100006.18;88091;279;137719;-80
2023/10/29 07:59:37;;;;;;;3.60;3.40;;;;;;;9.72;100.00;100004.79;87898;281;509847;-72
2023/10/29 08:01:39;;;;;;;4.00;3.70;;;;;;;9.72;100.00;100003.88;88280;275;141787;-77
2023/10/29 08:03:42;;;;;;;4.00;3.70;;;;;;;9.74;100.00;99999.72;88471;275;25307;-81
2023/10/29 08:05:51;;;;;;;4.90;3.20;;;;;;;9.76;100.00;100000.04;88721;279;136356;-78
2023/10/29 08:07:52;;;;;;;3.80;3.50;;;;;;;9.78;100.00;99998.86;89192;283;23984;-72
2023/10/29 08:09:56;;;;;;;4.70;4.30;;;;;;;9.81;100.00;100002.23;88824;277;136376;-79
2023/10/29 08:11:58;;;;;;;4.40;4.00;;;;;;;9.82;100.00;100007.45;88696;275;24021;-79
2023/10/29 08:13:59;;;;;;;4.50;3.50;;;;;;;9.82;100.00;100011.34;88252;279;136367;-73
2023/10/29 08:16:02;;;;;;;4.30;3.50;;;;;;;9.82;100.00;100010.94;88354;275;22577;-81
2023/10/29 08:18:05;;;;;;;3.90;3.60;;;;;;;9.82;100.00;100010.68;88533;282;22537;-80
2023/10/29 08:20:07;;;;;;;3.90;3.50;;;;;;;9.81;100.00;100018.00;88348;284;136773;-82
2023/10/29 08:22:09;;;;;;;4.00;3.70;;;;;;;9.83;100.00;100016.14;88354;276;25203;-80
2023/10/29 08:24:11;;;;;;;4.40;3.60;;;;;;;9.87;100.00;100016.30;88356;279;136961;-80
2023/10/29 08:26:14;;;;;;;4.50;4.10;;;;;;;9.91;100.00;100020.96;88258;276;25083;-81
2023/10/29 08:28:18;;;;;;;5.80;3.90;;;;;;;9.96;100.00;100024.33;88247;284;137750;-78
2023/10/29 08:30:20;;;;;;;3.70;3.50;;;;;;;9.99;100.00;100026.23;88169;278;22537;-69
2023/10/29 08:32:22;;;;;;;4.00;3.70;;;;;;;10.03;100.00;100024.47;88215;275;137546;-78
2023/10/29 08:34:25;;;;;;;3.80;3.50;;;;;;;10.06;100.00;100025.42;88263;276;22559;-76
2023/10/29 08:36:28;;;;;;;4.20;3.80;;;;;;;10.07;100.00;100033.38;88140;276;137076;-80
2023/10/29 08:38:30;;;;;;;4.00;3.70;;;;;;;10.12;100.00;100034.41;88298;283;22542;-80
2023/10/29 08:40:31;;;;;;;4.90;4.60;;;;;;;10.16;100.00;100032.06;88123;280;136818;-78
2023/10/29 08:42:34;;;;;;;4.90;4.40;;;;;;;10.20;100.00;100026.08;88266;285;25174;-73
2023/10/29 08:44:36;;;;;;;4.90;4.40;;;;;;;10.28;100.00;100028.42;88115;284;138825;-76
2023/10/29 08:46:39;;;;;;;5.80;5.30;;;;;;;10.38;100.00;100029.23;88182;275;22540;-74
2023/10/29 08:48:41;;;;;;;5.20;4.70;;;;;;;10.49;100.00;100032.38;88548;276;138498;-73
2023/10/29 08:50:43;;;;;;;4.50;4.10;;;;;;;10.59;100.00;100045.38;88689;284;22654;-76
2023/10/29 08:52:44;;;;;;;5.60;5.10;;;;;;;10.64;100.00;100049.15;88243;283;136950;-77
2023/10/29 08:54:47;;;;;;;5.20;4.70;;;;;;;10.69;100.00;100047.95;88363;277;25086;-78
2023/10/29 08:56:49;;;;;;;5.70;5.20;;;;;;;10.77;100.00;100053.04;88250;276;137132;-80
2023/10/29 08:58:51;;;;;;;6.30;5.80;;;;;;;10.82;100.00;100057.42;88391;275;27248;-73
2023/10/29 09:00:57;;;;;;;7.50;6.70;;;;;;;10.82;100.00;100060.95;88220;283;136604;-75
2023/10/29 09:02:59;;;;;;;6.10;5.60;;;;;;;10.82;100.00;100060.00;91056;284;22503;-79
2023/10/29 09:05:01;;;;;;;7.10;6.40;;;;;;;10.85;100.00;100059.44;88444;277;136823;-75
2023/10/29 09:07:04;;;;;;;6.50;5.80;;;;;;;10.88;100.00;100067.13;88464;276;25168;-72
2023/10/29 09:09:06;;;;;;;5.50;5.00;;;;;;;10.89;100.00;100066.06;88306;283;138019;-67
2023/10/29 09:11:14;;;;;;;5.70;5.20;;;;;;;10.96;100.00;100071.52;88582;277;22537;-75
2023/10/29 09:13:19;;;;;;;9.00;5.90;;;;;;;11.05;100.00;100076.13;88495;280;138143;-74
2023/10/29 09:15:21;;;;;;;6.10;5.50;;;;;;;11.14;100.00;100071.77;88488;282;22544;-73
2023/10/29 09:17:24;;;;;;;7.20;5.70;;;;;;;11.24;100.00;100071.16;88529;281;136861;-79
2023/10/29 09:19:32;;;;;;;6.10;5.30;;;;;;;11.35;100.00;100076.66;88460;279;22556;-75
2023/10/29 09:21:39;;;;;;;5.20;4.20;;;;;;;11.41;100.00;100078.40;88594;273;138115;-79
2023/10/29 09:23:41;;;;;;;9.50;5.10;;;;;;;11.33;100.00;100066.64;88560;273;22606;-78
2023/10/29 09:25:46;;;;;;;6.90;5.50;;;;;;;11.42;100.00;100077.38;88367;274;137718;-76
2023/10/29 09:27:47;;;;;;;7.10;5.40;;;;;;;11.46;100.00;100078.60;88467;281;22537;-75
2023/10/29 09:29:54;;;;;;;5.20;4.70;;;;;;;11.51;100.00;100074.04;88515;281;137093;-80
2023/10/29 09:31:58;;;;;;;5.00;4.60;;;;;;;11.59;100.00;100078.42;88690;279;25204;-75
2023/10/29 09:34:04;;;;;;;5.40;4.90;;;;;;;11.57;100.00;100082.00;88576;278;22553;-74
2023/10/29 09:36:06;;;;;;;5.90;5.40;;;;;;;11.51;100.00;100089.20;88504;273;138339;-75
2023/10/29 09:38:08;;;;;;;5.10;4.70;;;;;;;11.46;100.00;100089.95;88470;279;24136;-76